Login to view products.
 
Tuesday, July 23, 2019 (12:22 UTC)
Al Bateen Executive Airport
ICAO: OMAD
IATA: AZI
  • METAR OMAD 231200Z 36008KT 310V040 9000 NSC 43/19 Q0994 NOSIG=
  • TAF OMAD 231100Z 2312/2418 35012KT 8000 NSC BECMG 2318/2320 06005KT BECMG 2400/2402 16012KT PROB30 2401/2405 4000 DU BECMG 2408/2410 34012KT=
D:\Input Parser\Destinations\Final\11\OMADL12181100560600924.txt
1